Time;durP1;ratioP1;P1;durP2;ratioP2;P2;SDS_P1;SDS_P2;PMS_P1;PMS_P2;Temp;Humidity;BMP_temperature;BMP_pressure;BME280_temperature;BME280_humidity;BME280_pressure;Samples;Min_cycle;Max_cycle;Signal;HPM_P1;HPM_P2
2020/12/05 00:01:55;;;;;;;29.20;19.80;;;;;;;0.20;86.78;98151.66;5050256;28;20203;-77
2020/12/05 00:04:20;;;;;;;27.60;20.90;;;;;;;0.32;86.43;98167.25;5050546;28;20175;-77
2020/12/05 00:06:45;;;;;;;26.23;21.47;;;;;;;0.33;85.93;98182.28;5050517;28;20175;-77
2020/12/05 00:09:11;;;;;;;27.33;20.43;;;;;;;0.28;86.42;98191.19;5050460;28;20175;-77
2020/12/05 00:11:37;;;;;;;32.00;22.63;;;;;;;0.23;86.18;98188.63;5050603;28;20170;-76
2020/12/05 00:14:02;;;;;;;30.67;21.20;;;;;;;0.23;86.37;98186.75;5050355;28;20682;-77
2020/12/05 00:16:28;;;;;;;34.13;23.30;;;;;;;0.39;86.33;98186.44;5032259;28;20229;-77
2020/12/05 00:18:56;;;;;;;28.83;20.70;;;;;;;0.43;86.39;98192.78;5050660;28;20644;-77
2020/12/05 00:21:23;;;;;;;28.73;22.13;;;;;;;0.39;85.63;98192.59;5050074;28;20210;-76
2020/12/05 00:23:48;;;;;;;25.17;21.60;;;;;;;0.23;86.16;98185.94;5050328;28;20896;-77
2020/12/05 00:26:18;;;;;;;33.57;23.27;;;;;;;-0.02;87.12;98185.34;5050563;28;20413;-76
2020/12/05 00:28:43;;;;;;;32.37;23.47;;;;;;;0.05;87.17;98176.91;5050423;28;20607;-77
2020/12/05 00:31:11;;;;;;;26.33;21.47;;;;;;;0.24;86.96;98182.16;5050437;28;20629;-76
2020/12/05 00:33:37;;;;;;;30.53;22.03;;;;;;;0.40;86.61;98175.38;5052009;28;20206;-76
2020/12/05 00:36:02;;;;;;;29.17;21.87;;;;;;;0.57;86.52;98172.06;5050770;28;20445;-76
2020/12/05 00:38:28;;;;;;;22.60;19.63;;;;;;;0.67;85.76;98171.84;5050423;28;20178;-77
2020/12/05 00:40:53;;;;;;;26.73;19.67;;;;;;;0.62;85.01;98174.66;5050165;28;20191;-76
2020/12/05 00:43:19;;;;;;;31.97;21.67;;;;;;;0.36;85.28;98171.72;5050095;28;20171;-77
2020/12/05 00:45:44;;;;;;;26.37;21.43;;;;;;;0.11;86.76;98164.16;5050143;28;20179;-77
2020/12/05 00:48:10;;;;;;;32.20;24.03;;;;;;;-0.04;87.36;98159.91;5050236;28;20197;-76
2020/12/05 00:50:35;;;;;;;40.87;26.33;;;;;;;-0.17;87.83;98150.75;5050020;28;20485;-77
2020/12/05 00:53:00;;;;;;;38.33;25.53;;;;;;;-0.18;88.27;98151.84;5050151;28;20245;-76
2020/12/05 00:55:26;;;;;;;36.60;23.73;;;;;;;-0.08;88.59;98151.66;5050087;28;20631;-76
2020/12/05 00:57:51;;;;;;;35.03;23.03;;;;;;;0.05;88.21;98157.31;5050250;28;20174;-77
2020/12/05 01:00:18;;;;;;;43.17;24.60;;;;;;;-0.05;87.82;98161.78;5050213;28;20579;-77
2020/12/05 01:02:43;;;;;;;32.10;23.30;;;;;;;-0.10;88.26;98159.22;5066654;28;20207;-76
2020/12/05 01:05:08;;;;;;;29.97;22.27;;;;;;;0.12;87.79;98163.88;5053951;28;20963;-77
2020/12/05 01:07:34;;;;;;;33.40;22.73;;;;;;;0.42;87.76;98175.88;5054215;28;20179;-77
2020/12/05 01:09:59;;;;;;;28.50;23.93;;;;;;;0.10;87.19;98176.78;5053733;28;20199;-76
2020/12/05 01:12:25;;;;;;;33.10;25.87;;;;;;;0.12;87.70;98177.28;5053575;28;20237;-77
2020/12/05 01:14:51;;;;;;;30.67;23.43;;;;;;;0.27;87.51;98197.66;5053479;28;20187;-77
2020/12/05 01:17:21;;;;;;;29.77;23.67;;;;;;;0.22;87.42;98205.84;5053243;28;20183;-77
2020/12/05 01:19:47;;;;;;;25.97;23.13;;;;;;;0.23;86.92;98212.78;5053564;28;20171;-76
2020/12/05 01:22:12;;;;;;;35.10;25.23;;;;;;;0.12;87.43;98219.44;5053272;28;20465;-76
2020/12/05 01:24:37;;;;;;;31.53;23.90;;;;;;;0.37;87.41;98216.28;5053697;28;20175;-80
2020/12/05 01:27:02;;;;;;;28.67;23.60;;;;;;;0.48;86.90;98222.25;5053180;28;20195;-77
2020/12/05 01:29:28;;;;;;;30.93;23.13;;;;;;;0.20;86.88;98216.09;5053164;28;20210;-77
2020/12/05 01:31:53;;;;;;;34.30;25.30;;;;;;;0.16;87.77;98215.09;5053213;28;20202;-77
2020/12/05 01:34:18;;;;;;;35.37;25.67;;;;;;;0.42;87.04;98228.78;5053133;28;20594;-77
2020/12/05 01:36:45;;;;;;;29.83;24.77;;;;;;;0.25;87.52;98218.66;5052864;28;20658;-77
2020/12/05 01:39:11;;;;;;;34.13;25.10;;;;;;;0.31;87.15;98214.78;5053129;28;20175;-77
2020/12/05 01:41:37;;;;;;;32.87;24.80;;;;;;;0.49;86.97;98219.25;5053361;28;20461;-77
2020/12/05 01:44:03;;;;;;;32.17;25.20;;;;;;;0.45;86.73;98229.00;5034924;28;20179;-79
2020/12/05 01:46:38;;;;;;;35.30;25.27;;;;;;;0.26;86.93;98225.63;5052891;28;20175;-76
2020/12/05 01:49:06;;;;;;;32.57;25.87;;;;;;;0.05;88.03;98219.84;5052892;28;20425;-77
2020/12/05 01:51:32;;;;;;;34.30;26.03;;;;;;;0.15;88.14;98216.97;5052855;28;20432;-77
2020/12/05 01:53:58;;;;;;;39.70;27.13;;;;;;;0.15;88.15;98219.66;5053410;28;20418;-76
2020/12/05 01:56:25;;;;;;;38.30;26.73;;;;;;;0.17;88.02;98230.09;5052512;28;20300;-76
2020/12/05 01:58:50;;;;;;;33.00;25.90;;;;;;;0.29;87.71;98227.72;5052712;28;20410;-77
2020/12/05 02:01:20;;;;;;;33.83;26.17;;;;;;;0.29;87.67;98227.72;5052594;28;20933;-77
2020/12/05 02:03:45;;;;;;;31.67;26.13;;;;;;;0.25;87.78;98219.44;5034650;28;20178;-77
2020/12/05 02:06:27;;;;;;;35.87;27.47;;;;;;;-0.14;89.12;98208.41;5034527;28;20426;-77
2020/12/05 02:09:07;;;;;;;39.43;28.70;;;;;;;-0.18;88.76;98189.41;5052342;28;20175;-78
2020/12/05 02:11:37;;;;;;;40.33;26.43;;;;;;;0.06;89.01;98185.75;5034505;28;20429;-77
2020/12/05 02:14:07;;;;;;;38.60;27.77;;;;;;;-0.08;88.71;98186.53;5051537;28;20432;-77
2020/12/05 02:16:34;;;;;;;42.77;28.93;;;;;;;-0.23;89.52;98175.28;5052496;28;20413;-77
2020/12/05 02:19:01;;;;;;;41.00;27.63;;;;;;;-0.15;89.58;98185.31;5053015;28;20757;-76
2020/12/05 02:21:29;;;;;;;40.70;26.97;;;;;;;0.04;89.28;98179.88;5052109;28;20476;-77
2020/12/05 02:23:58;;;;;;;41.47;29.83;;;;;;;-0.09;89.68;98184.94;5052322;28;20453;-76
2020/12/05 02:26:26;;;;;;;36.63;27.73;;;;;;;-0.11;89.56;98178.28;5034172;28;20426;-78
2020/12/05 02:28:51;;;;;;;35.53;27.20;;;;;;;0.10;88.55;98187.53;5052187;28;20421;-76
2020/12/05 02:31:17;;;;;;;40.17;28.53;;;;;;;0.05;88.69;98184.97;5052080;28;20444;-77
2020/12/05 02:33:43;;;;;;;42.77;26.93;;;;;;;0.14;88.64;98195.78;5051978;28;20179;-77
2020/12/05 02:36:09;;;;;;;34.10;25.43;;;;;;;0.39;88.39;98199.84;5033766;28;20179;-77
2020/12/05 02:38:47;;;;;;;38.03;28.07;;;;;;;0.26;88.01;98193.41;5051955;28;20168;-76
2020/12/05 02:41:12;;;;;;;40.23;29.37;;;;;;;0.04;89.04;98191.41;5051852;28;20465;-76
2020/12/05 02:43:38;;;;;;;43.30;28.70;;;;;;;0.00;89.16;98190.44;5051871;28;20628;-76
2020/12/05 02:46:04;;;;;;;34.87;27.43;;;;;;;0.06;89.16;98177.69;5051832;28;20175;-77
2020/12/05 02:48:29;;;;;;;38.90;28.37;;;;;;;0.31;88.75;98187.16;5051495;28;20422;-77
2020/12/05 02:50:54;;;;;;;37.03;27.80;;;;;;;0.29;88.55;98190.13;5051637;28;20183;-78
2020/12/05 02:53:20;;;;;;;43.27;27.53;;;;;;;0.11;88.85;98191.81;5051854;28;20667;-80
2020/12/05 02:55:45;;;;;;;38.30;28.17;;;;;;;0.10;88.46;98190.22;5051720;28;20179;-78
2020/12/05 02:58:11;;;;;;;39.37;27.67;;;;;;;0.41;88.44;98201.13;5051613;28;20179;-76
2020/12/05 03:00:36;;;;;;;34.10;26.27;;;;;;;0.51;88.10;98211.69;5051449;28;20517;-76
2020/12/05 03:03:02;;;;;;;33.23;26.47;;;;;;;0.41;87.69;98206.50;5051652;28;20217;-75
2020/12/05 03:05:28;;;;;;;37.67;28.57;;;;;;;0.09;88.24;98218.16;5051526;28;20176;-76
2020/12/05 03:07:53;;;;;;;47.67;29.07;;;;;;;-0.01;88.83;98221.81;5051387;28;20445;-79
2020/12/05 03:10:19;;;;;;;40.53;28.83;;;;;;;-0.10;89.17;98225.50;5051438;28;20618;-78
2020/12/05 03:12:44;;;;;;;45.43;31.03;;;;;;;-0.09;90.13;98221.72;5051412;28;20510;-77
2020/12/05 03:15:09;;;;;;;37.63;28.63;;;;;;;0.14;89.40;98238.72;5051369;28;20314;-79
2020/12/05 03:17:35;;;;;;;34.70;26.73;;;;;;;0.21;89.50;98234.56;5032943;28;20202;-75
2020/12/05 03:20:00;;;;;;;39.17;27.33;;;;;;;0.31;88.94;98249.69;5051147;28;20655;-77
2020/12/05 03:22:25;;;;;;;40.17;28.03;;;;;;;0.21;89.17;98247.19;5050581;28;20349;-76
2020/12/05 03:24:51;;;;;;;36.93;27.43;;;;;;;0.08;90.08;98246.09;5050858;28;20179;-76
2020/12/05 03:27:17;;;;;;;46.70;30.40;;;;;;;-0.08;90.04;98250.94;5050780;28;20622;-77
2020/12/05 03:29:42;;;;;;;46.70;30.87;;;;;;;-0.13;91.32;98247.56;5033235;28;20190;-77
2020/12/05 03:34:35;;;;;;;45.40;29.73;;;;;;;-0.11;90.62;98243.50;5051108;28;20273;-76
2020/12/05 03:37:01;;;;;;;47.80;31.87;;;;;;;-0.14;90.99;98244.09;5050930;28;20548;-78
2020/12/05 03:39:26;;;;;;;48.40;31.70;;;;;;;-0.16;90.97;98232.03;5050833;28;20182;-77
2020/12/05 03:41:51;;;;;;;44.93;31.50;;;;;;;0.02;91.12;98225.81;5050703;28;20199;-77
2020/12/05 03:44:17;;;;;;;39.57;28.80;;;;;;;0.25;90.95;98221.34;5050747;28;20183;-77
2020/12/05 03:46:42;;;;;;;38.70;29.23;;;;;;;0.37;89.57;98210.09;5050652;28;20233;-76
2020/12/05 03:49:07;;;;;;;37.00;27.87;;;;;;;0.38;89.81;98192.91;5050715;28;20653;-76
2020/12/05 03:51:33;;;;;;;40.43;28.17;;;;;;;0.63;89.59;98167.41;5050713;28;20191;-77
2020/12/05 03:53:58;;;;;;;39.00;25.23;;;;;;;0.72;88.09;98146.75;5050710;28;20701;-76
2020/12/05 03:56:23;;;;;;;30.73;23.97;;;;;;;0.65;87.05;98136.44;5050720;28;20264;-77
2020/12/05 03:58:51;;;;;;;36.60;24.70;;;;;;;0.57;87.36;98146.00;5050570;28;20185;-76
2020/12/05 04:01:17;;;;;;;36.85;28.48;;;;;;;0.58;87.45;98142.25;5050199;28;20531;-77
2020/12/05 04:03:42;;;;;;;29.93;24.50;;;;;;;0.54;87.72;98151.97;5050796;28;20179;-76
2020/12/05 04:06:08;;;;;;;33.23;24.70;;;;;;;0.42;87.75;98169.72;5050864;28;20417;-77
2020/12/05 04:08:33;;;;;;;36.70;25.83;;;;;;;0.34;88.38;98189.22;5050573;28;20544;-77
2020/12/05 04:10:58;;;;;;;31.37;25.33;;;;;;;0.35;88.34;98193.50;5050534;28;20176;-76
2020/12/05 04:13:24;;;;;;;35.70;25.70;;;;;;;0.44;89.18;98202.44;5050401;28;20173;-76
2020/12/05 04:15:49;;;;;;;37.00;27.40;;;;;;;0.50;89.41;98212.78;5050391;28;20671;-77
2020/12/05 04:18:15;;;;;;;33.30;26.23;;;;;;;0.45;89.45;98218.28;5032473;28;20191;-77
2020/12/05 04:20:41;;;;;;;34.10;26.23;;;;;;;0.29;89.57;98219.66;5032710;28;20601;-76
2020/12/05 04:23:06;;;;;;;38.00;27.23;;;;;;;0.32;90.06;98219.06;5050624;28;20450;-78
2020/12/05 04:25:31;;;;;;;39.37;28.30;;;;;;;0.34;90.08;98213.41;5050442;28;20693;-78
2020/12/05 04:27:57;;;;;;;38.70;25.83;;;;;;;0.47;90.11;98229.50;5050697;28;20568;-77
2020/12/05 04:30:22;;;;;;;29.57;23.67;;;;;;;0.70;88.77;98237.63;5050285;28;20198;-78
2020/12/05 04:32:48;;;;;;;33.93;25.13;;;;;;;0.56;88.29;98235.75;5050789;28;20176;-78
2020/12/05 04:35:14;;;;;;;31.00;25.53;;;;;;;0.57;89.13;98266.09;5050326;28;20297;-78
2020/12/05 04:37:39;;;;;;;41.20;26.57;;;;;;;0.68;88.19;98266.69;5051368;28;20175;-79
2020/12/05 04:40:05;;;;;;;33.97;25.77;;;;;;;0.55;88.21;98261.03;5054266;28;20171;-76
2020/12/05 04:42:31;;;;;;;31.87;25.33;;;;;;;0.29;89.46;98244.63;5036149;28;20207;-77
2020/12/05 04:44:56;;;;;;;37.97;26.43;;;;;;;0.23;89.81;98251.19;5054101;28;20190;-77
2020/12/05 04:47:24;;;;;;;31.67;25.13;;;;;;;0.38;89.82;98246.59;5053934;28;20912;-77
2020/12/05 04:49:54;;;;;;;33.03;24.43;;;;;;;0.32;89.76;98240.56;5036117;28;20183;-76
2020/12/05 04:52:22;;;;;;;32.37;24.40;;;;;;;0.30;90.18;98232.00;5053960;28;20909;-76
2020/12/05 04:54:53;;;;;;;34.70;24.80;;;;;;;0.56;89.71;98254.56;5053929;28;20444;-78
2020/12/05 04:57:22;;;;;;;32.57;24.20;;;;;;;0.89;88.90;98251.75;5053758;28;20425;-77
2020/12/05 04:59:49;;;;;;;27.93;24.77;;;;;;;1.08;88.87;98236.25;5053753;28;20414;-76
2020/12/05 05:02:18;;;;;;;32.93;26.53;;;;;;;1.24;87.44;98225.16;5053655;28;20466;-77
2020/12/05 05:04:43;;;;;;;26.97;22.83;;;;;;;0.76;87.60;98231.84;5053869;28;20833;-77
2020/12/05 05:07:09;;;;;;;36.13;24.77;;;;;;;0.88;87.83;98248.25;5053508;28;20500;-79
2020/12/05 05:09:34;;;;;;;30.33;23.77;;;;;;;1.07;87.52;98258.88;5053709;28;20167;-77
2020/12/05 05:11:59;;;;;;;28.63;23.63;;;;;;;1.29;87.06;98271.53;5053724;28;20661;-77
2020/12/05 05:14:34;;;;;;;23.80;21.27;;;;;;;1.43;86.45;98287.63;5053471;28;20553;-80
2020/12/05 05:17:07;;;;;;;29.27;21.70;;;;;;;1.30;86.43;98294.66;5053416;28;20563;-77
2020/12/05 05:19:36;;;;;;;23.97;21.27;;;;;;;1.18;85.94;98305.16;5053426;28;20425;-80
2020/12/05 05:22:02;;;;;;;23.47;20.93;;;;;;;1.16;85.95;98308.16;5053372;28;20559;-77
2020/12/05 05:24:28;;;;;;;24.07;20.33;;;;;;;1.11;86.23;98312.81;5053480;28;20167;-78
2020/12/05 05:27:08;;;;;;;28.43;21.53;;;;;;;0.92;86.56;98294.16;5053123;28;20772;-78
2020/12/05 05:29:42;;;;;;;28.13;21.30;;;;;;;0.75;87.39;98300.13;5053292;28;20220;-77
2020/12/05 05:32:11;;;;;;;27.83;22.77;;;;;;;0.61;88.22;98302.03;5053435;28;20850;-77
2020/12/05 05:34:37;;;;;;;27.83;22.53;;;;;;;0.53;88.69;98308.88;5053255;28;20514;-77
2020/12/05 05:37:18;;;;;;;26.00;21.73;;;;;;;0.55;88.70;98303.22;5053509;28;20524;-78
2020/12/05 05:39:48;;;;;;;33.97;23.10;;;;;;;0.47;89.00;98298.53;5035370;28;20646;-78
2020/12/05 05:42:29;;;;;;;35.10;23.20;;;;;;;0.37;89.69;98290.69;5035013;28;20850;-78
2020/12/05 05:45:27;;;;;;;30.43;23.47;;;;;;;0.24;90.30;98270.75;5053100;28;20448;-77
2020/12/05 05:48:00;;;;;;;37.83;23.97;;;;;;;0.23;90.51;98269.97;5053040;28;20459;-77
2020/12/05 05:50:33;;;;;;;38.03;24.30;;;;;;;0.40;90.79;98274.75;5053012;28;20806;-77
2020/12/05 05:53:01;;;;;;;35.43;24.47;;;;;;;0.42;90.44;98267.19;5052925;28;20424;-78
2020/12/05 05:55:47;;;;;;;29.83;23.07;;;;;;;0.61;90.16;98260.94;5052782;28;20441;-77
2020/12/05 05:58:22;;;;;;;30.53;23.83;;;;;;;0.77;89.42;98264.91;5052570;28;21014;-78
2020/12/05 06:00:51;;;;;;;28.57;23.07;;;;;;;0.71;89.62;98263.41;5052616;28;20451;-77
2020/12/05 06:03:26;;;;;;;33.00;23.60;;;;;;;0.96;89.06;98288.94;5052753;28;20424;-77
2020/12/05 06:05:57;;;;;;;28.30;22.57;;;;;;;1.02;88.73;98285.88;5052655;28;20596;-78
2020/12/05 06:08:27;;;;;;;29.23;23.90;;;;;;;0.90;88.54;98288.28;5052295;28;20816;-77
2020/12/05 06:10:57;;;;;;;31.80;23.67;;;;;;;0.69;89.00;98297.84;5052441;28;20240;-77
2020/12/05 06:13:28;;;;;;;32.00;23.53;;;;;;;0.71;89.02;98301.00;5052431;28;20425;-76
2020/12/05 06:15:53;;;;;;;30.50;22.73;;;;;;;0.87;88.77;98315.75;5052369;28;20904;-77
2020/12/05 06:18:20;;;;;;;25.87;21.80;;;;;;;0.93;88.81;98309.19;5052220;28;20461;-78
2020/12/05 06:20:46;;;;;;;25.97;22.27;;;;;;;0.99;88.11;98329.47;5052119;28;20180;-77
2020/12/05 06:23:21;;;;;;;26.23;21.20;;;;;;;0.98;87.97;98317.13;5052340;28;20513;-76
2020/12/05 06:25:52;;;;;;;29.40;22.60;;;;;;;1.08;87.24;98283.84;5052642;28;20819;-77
2020/12/05 06:28:18;;;;;;;27.77;21.97;;;;;;;1.08;87.02;98300.78;5052254;28;20190;-76
2020/12/05 06:30:45;;;;;;;28.13;20.63;;;;;;;0.99;86.98;98307.97;5052846;28;20458;-77
2020/12/05 06:33:11;;;;;;;32.23;22.00;;;;;;;0.98;87.07;98284.06;5054208;28;20942;-77
2020/12/05 06:35:36;;;;;;;23.60;20.90;;;;;;;1.15;87.03;98301.16;5052856;28;20593;-77
2020/12/05 06:38:03;;;;;;;24.83;20.37;;;;;;;1.29;86.35;98332.59;5052158;28;20547;-76
2020/12/05 06:40:38;;;;;;;27.83;19.73;;;;;;;1.27;85.95;98348.25;5052385;28;20172;-77
2020/12/05 06:43:11;;;;;;;28.27;19.33;;;;;;;1.17;86.32;98374.28;5052013;28;20461;-76
2020/12/05 06:45:38;;;;;;;25.43;20.07;;;;;;;1.17;86.66;98366.22;5051955;28;20409;-76
2020/12/05 06:48:07;;;;;;;28.17;20.93;;;;;;;1.11;86.25;98363.91;5051582;28;20417;-77
2020/12/05 06:50:33;;;;;;;28.67;20.70;;;;;;;1.24;86.34;98399.97;5051869;28;20450;-76
2020/12/05 06:52:59;;;;;;;24.33;18.97;;;;;;;1.35;84.70;98422.88;5052078;28;20425;-75
2020/12/05 06:55:32;;;;;;;27.03;18.63;;;;;;;1.47;83.62;98423.94;5051798;28;20754;-76
2020/12/05 06:58:06;;;;;;;21.13;16.87;;;;;;;1.61;82.02;98417.75;5051663;28;20175;-76
2020/12/05 07:00:36;;;;;;;16.17;12.53;;;;;;;1.69;81.53;98441.25;5050783;28;20463;-76
2020/12/05 07:03:08;;;;;;;17.07;13.30;;;;;;;1.75;81.10;98458.91;5051747;28;20472;-76
2020/12/05 07:05:46;;;;;;;14.50;12.23;;;;;;;1.75;80.97;98446.22;5051608;28;20413;-76
2020/12/05 07:08:27;;;;;;;11.87;9.10;;;;;;;1.78;81.03;98448.31;5051291;28;20858;-76
2020/12/05 07:11:03;;;;;;;19.10;11.87;;;;;;;1.79;81.35;98441.03;5051182;28;20425;-76
2020/12/05 07:13:30;;;;;;;23.23;14.27;;;;;;;1.83;80.86;98438.53;5033464;28;20421;-76
2020/12/05 07:16:20;;;;;;;22.93;16.90;;;;;;;1.91;80.33;98430.53;5051266;28;20513;-76
2020/12/05 07:18:48;;;;;;;18.97;13.53;;;;;;;1.98;80.27;98440.88;5051619;28;20781;-76
2020/12/05 07:21:14;;;;;;;19.30;12.57;;;;;;;2.07;80.07;98444.44;5051102;28;21000;-76
2020/12/05 07:23:41;;;;;;;23.67;18.47;;;;;;;2.15;79.91;98459.88;5051361;28;20410;-77
2020/12/05 07:26:07;;;;;;;20.57;14.33;;;;;;;2.21;79.99;98455.16;5050965;28;20426;-77
2020/12/05 07:28:33;;;;;;;8.97;7.97;;;;;;;2.32;79.80;98462.72;5050995;28;20429;-77
2020/12/05 07:30:58;;;;;;;12.83;9.73;;;;;;;2.37;80.15;98470.66;5050988;28;20171;-77
2020/12/05 07:33:24;;;;;;;9.80;7.90;;;;;;;2.38;80.65;98460.69;5050987;28;20920;-77
2020/12/05 07:36:17;;;;;;;20.17;13.80;;;;;;;2.36;81.55;98484.44;5050878;28;20258;-78
2020/12/05 07:38:44;;;;;;;14.17;11.83;;;;;;;2.29;82.45;98495.63;5047419;28;20195;-77
2020/12/05 07:41:11;;;;;;;14.77;11.23;;;;;;;2.23;83.40;98477.22;5050679;28;20457;-77
2020/12/05 07:43:37;;;;;;;9.63;8.73;;;;;;;2.15;84.50;98469.84;5050745;28;20398;-78
2020/12/05 07:46:05;;;;;;;9.17;8.17;;;;;;;2.08;85.14;98478.34;5050780;28;20814;-78
2020/12/05 07:48:31;;;;;;;13.33;11.17;;;;;;;2.01;85.36;98481.44;5050471;28;20441;-77
2020/12/05 07:50:57;;;;;;;21.27;13.53;;;;;;;1.96;85.73;98478.88;5050945;28;20456;-77
2020/12/05 07:53:24;;;;;;;21.83;17.00;;;;;;;1.96;86.18;98472.69;5050956;28;20258;-77
2020/12/05 07:55:50;;;;;;;17.03;13.73;;;;;;;1.97;86.94;98487.75;5050678;28;20202;-77
2020/12/05 07:58:15;;;;;;;15.93;11.30;;;;;;;1.97;87.18;98485.84;5050575;28;20452;-81
2020/12/05 08:00:42;;;;;;;25.17;19.03;;;;;;;1.97;87.29;98501.22;5050469;28;20621;-78
2020/12/05 08:03:44;;;;;;;26.83;19.90;;;;;;;1.98;87.34;98530.53;5050421;28;20211;-78
2020/12/05 08:06:57;;;;;;;29.80;19.00;;;;;;;2.01;87.68;98553.38;5050413;28;20435;-79
2020/12/05 08:09:32;;;;;;;20.90;17.43;;;;;;;2.09;87.83;98572.31;4989027;28;20432;-74
2020/12/05 08:11:58;;;;;;;11.50;9.43;;;;;;;2.16;87.67;98582.66;5052014;28;20569;-75
2020/12/05 08:14:23;;;;;;;16.17;13.00;;;;;;;2.21;87.24;98601.44;5054753;28;20969;-75
2020/12/05 08:16:53;;;;;;;17.43;11.47;;;;;;;2.28;86.84;98593.72;5054433;28;20187;-73
2020/12/05 08:19:19;;;;;;;18.40;13.70;;;;;;;2.33;86.80;98599.03;5054657;28;20240;-74
2020/12/05 08:21:44;;;;;;;9.53;7.90;;;;;;;2.33;86.73;98590.94;5054396;28;20456;-74
2020/12/05 08:24:10;;;;;;;8.37;7.57;;;;;;;2.38;85.91;98590.81;5054531;28;20182;-73
2020/12/05 08:26:37;;;;;;;14.10;11.93;;;;;;;2.35;86.22;98607.59;5054375;28;20182;-75
2020/12/05 08:29:04;;;;;;;10.70;9.60;;;;;;;2.37;86.24;98604.59;5056421;28;20470;-74
2020/12/05 08:31:30;;;;;;;16.93;15.23;;;;;;;2.36;86.38;98622.66;5067870;28;20935;-74
2020/12/05 08:33:55;;;;;;;15.47;11.60;;;;;;;2.39;86.10;98624.75;5074387;28;20762;-73
2020/12/05 08:36:31;;;;;;;8.53;7.63;;;;;;;2.42;86.26;98623.34;5065775;28;20167;-74
2020/12/05 08:39:03;;;;;;;19.57;16.77;;;;;;;2.45;86.29;98649.69;5054343;28;20650;-74
2020/12/05 08:41:28;;;;;;;17.70;15.80;;;;;;;2.50;86.16;98656.88;5036239;28;20522;-74
2020/12/05 08:43:54;;;;;;;14.47;13.10;;;;;;;2.54;86.22;98657.88;5054211;28;20660;-74
2020/12/05 08:46:22;;;;;;;6.67;4.50;;;;;;;2.58;85.79;98648.88;5054060;28;20178;-74
2020/12/05 08:48:48;;;;;;;12.50;10.47;;;;;;;2.61;85.80;98644.78;5053916;28;20171;-74
2020/12/05 08:51:15;;;;;;;15.30;13.80;;;;;;;2.61;85.87;98642.09;5054192;28;20425;-74
2020/12/05 08:53:40;;;;;;;13.67;12.47;;;;;;;2.64;85.94;98657.66;5053917;28;20414;-74
2020/12/05 08:56:06;;;;;;;6.37;5.73;;;;;;;2.67;85.73;98646.25;5053925;28;20774;-75
2020/12/05 08:58:47;;;;;;;4.13;3.60;;;;;;;2.67;85.76;98638.16;5053809;28;20171;-74
2020/12/05 09:01:14;;;;;;;12.73;11.53;;;;;;;2.65;85.87;98637.69;5043146;28;20266;-76
2020/12/05 09:03:40;;;;;;;9.17;6.27;;;;;;;2.64;85.66;98631.50;5033865;28;20411;-77
2020/12/05 09:06:07;;;;;;;8.87;8.07;;;;;;;2.63;85.78;98650.66;5033879;28;20451;-75
2020/12/05 09:08:33;;;;;;;3.47;3.20;;;;;;;2.64;86.11;98673.81;5033560;28;20936;-77
2020/12/05 09:10:58;;;;;;;4.97;4.53;;;;;;;2.64;86.10;98680.03;5033888;28;20419;-78
2020/12/05 09:13:24;;;;;;;4.03;3.43;;;;;;;2.66;86.17;98693.19;5033911;28;20897;-77
2020/12/05 09:16:03;;;;;;;4.40;4.00;;;;;;;2.63;85.87;98710.78;5033448;28;20168;-81
2020/12/05 09:18:40;;;;;;;5.53;4.47;;;;;;;2.63;85.99;98707.28;5033532;28;20196;-77
2020/12/05 09:21:17;;;;;;;5.17;4.70;;;;;;;2.64;86.14;98712.38;5033405;28;20427;-78
2020/12/05 09:23:43;;;;;;;5.27;4.87;;;;;;;2.65;86.12;98730.13;5032928;28;20513;-76
2020/12/05 09:26:09;;;;;;;8.87;3.63;;;;;;;2.65;85.96;98730.13;5042931;28;20421;-74
2020/12/05 09:28:35;;;;;;;5.00;4.57;;;;;;;2.68;86.04;98734.91;5060544;28;20439;-74
2020/12/05 09:31:07;;;;;;;8.83;7.87;;;;;;;2.68;86.07;98731.44;5073759;28;20175;-74
2020/12/05 09:33:33;;;;;;;7.03;6.33;;;;;;;2.67;86.19;98736.03;5073611;28;20429;-76
2020/12/05 09:35:58;;;;;;;3.23;2.93;;;;;;;2.67;86.34;98737.91;5062860;28;20425;-76
2020/12/05 09:38:23;;;;;;;3.73;3.43;;;;;;;2.65;86.14;98738.22;5053249;28;20356;-76
2020/12/05 09:40:49;;;;;;;4.43;3.70;;;;;;;2.68;86.64;98744.91;5053327;28;20183;-87
2020/12/05 09:43:15;;;;;;;4.90;4.43;;;;;;;2.68;86.78;98766.47;5053601;28;20690;-77
2020/12/05 09:45:41;;;;;;;4.10;3.73;;;;;;;2.71;86.55;98759.69;5054328;28;20425;-76
2020/12/05 09:48:06;;;;;;;5.03;4.57;;;;;;;2.72;86.69;98755.88;5053611;28;20585;-78
2020/12/05 09:50:32;;;;;;;4.43;4.03;;;;;;;2.73;86.70;98739.41;5059581;28;20201;-76
2020/12/05 09:52:59;;;;;;;5.73;5.23;;;;;;;2.75;87.17;98747.19;5054859;28;20179;-76
2020/12/05 09:55:25;;;;;;;2.60;2.40;;;;;;;2.76;86.78;98765.78;5052332;28;20180;-79
2020/12/05 09:57:50;;;;;;;4.83;4.33;;;;;;;2.79;86.47;98777.84;5052409;28;20543;-77
2020/12/05 10:00:15;;;;;;;2.67;2.47;;;;;;;2.82;86.78;98782.66;5052984;28;20175;-77
2020/12/05 10:02:41;;;;;;;3.60;3.27;;;;;;;2.86;86.51;98792.53;5052932;28;20210;-76
2020/12/05 10:05:09;;;;;;;2.53;2.33;;;;;;;2.87;86.75;98796.00;5052932;28;20746;-78
2020/12/05 10:07:35;;;;;;;5.33;4.83;;;;;;;2.90;86.68;98780.06;5052414;28;20196;-76
2020/12/05 10:10:00;;;;;;;3.73;3.40;;;;;;;2.94;86.53;98780.25;5059648;28;20960;-76
2020/12/05 10:12:26;;;;;;;5.40;4.90;;;;;;;2.94;86.33;98783.72;5051620;28;20171;-77
2020/12/05 10:14:51;;;;;;;6.93;6.23;;;;;;;2.98;86.38;98779.31;5051602;28;20183;-76
2020/12/05 10:17:17;;;;;;;3.63;3.13;;;;;;;3.01;86.15;98769.03;5051876;28;20183;-77
2020/12/05 10:19:42;;;;;;;4.90;4.50;;;;;;;3.02;85.87;98770.63;5052984;28;20550;-76
2020/12/05 10:22:08;;;;;;;6.53;4.50;;;;;;;3.06;86.21;98755.44;5066224;28;20221;-75
2020/12/05 10:24:33;;;;;;;6.00;5.47;;;;;;;3.10;85.81;98756.44;5056614;28;20183;-76
2020/12/05 10:26:58;;;;;;;6.13;5.63;;;;;;;3.17;85.46;98759.50;5061432;28;20183;-76
2020/12/05 10:29:24;;;;;;;4.30;3.90;;;;;;;3.23;85.43;98763.69;5065109;28;20191;-76
2020/12/05 10:31:53;;;;;;;5.53;4.87;;;;;;;3.34;85.43;98766.97;5069153;28;20171;-77
2020/12/05 10:34:19;;;;;;;2.97;2.17;;;;;;;3.41;85.02;98743.84;5071206;28;20182;-76
2020/12/05 10:36:45;;;;;;;4.57;3.77;;;;;;;3.49;84.38;98743.13;5070540;28;20571;-76
2020/12/05 10:39:11;;;;;;;4.90;4.50;;;;;;;3.57;84.27;98758.56;5053956;28;20429;-76
2020/12/05 10:41:37;;;;;;;10.73;4.87;;;;;;;3.67;84.03;98754.03;5065329;28;20211;-76
2020/12/05 10:44:04;;;;;;;5.13;4.20;;;;;;;3.74;83.79;98747.06;5050918;28;20171;-76
2020/12/05 10:46:29;;;;;;;3.87;2.87;;;;;;;3.81;83.36;98755.56;5064802;28;20194;-77
2020/12/05 10:48:54;;;;;;;8.13;7.53;;;;;;;3.85;83.00;98759.22;5071394;28;20179;-76
2020/12/05 10:51:20;;;;;;;4.00;3.70;;;;;;;3.87;82.65;98764.31;5071251;28;20234;-75
2020/12/05 10:53:45;;;;;;;7.33;6.73;;;;;;;3.90;83.17;98755.59;5071095;28;20220;-75
2020/12/05 10:56:10;;;;;;;2.70;2.50;;;;;;;3.98;83.09;98757.56;5068221;28;20183;-76
2020/12/05 10:58:36;;;;;;;18.53;6.77;;;;;;;4.01;83.32;98770.44;5065790;28;20176;-79
2020/12/05 11:01:01;;;;;;;4.53;4.23;;;;;;;4.07;82.95;98777.34;5071480;28;20189;-76
2020/12/05 11:03:26;;;;;;;2.50;1.93;;;;;;;4.06;82.46;98767.63;5071720;28;20178;-78
2020/12/05 11:05:52;;;;;;;4.37;3.20;;;;;;;4.07;82.28;98757.63;5034794;28;20175;-75
2020/12/05 11:08:17;;;;;;;5.60;4.67;;;;;;;4.11;83.18;98767.50;5051682;28;20183;-76
2020/12/05 11:10:43;;;;;;;3.60;3.30;;;;;;;4.11;82.36;98789.13;5051285;28;20643;-75
2020/12/05 11:13:08;;;;;;;2.73;2.30;;;;;;;4.12;82.14;98793.41;5051651;28;20258;-77
2020/12/05 11:15:33;;;;;;;5.50;4.93;;;;;;;4.14;82.60;98793.91;5050829;28;20593;-78
2020/12/05 11:17:59;;;;;;;8.40;5.13;;;;;;;4.15;82.34;98798.19;5050529;28;20222;-75
2020/12/05 11:20:24;;;;;;;6.20;4.93;;;;;;;4.22;82.92;98780.75;5050896;28;20172;-77
2020/12/05 11:22:50;;;;;;;3.23;2.93;;;;;;;4.26;82.08;98781.72;5050615;28;20223;-80
2020/12/05 11:25:15;;;;;;;6.80;5.80;;;;;;;4.32;81.97;98785.88;5050651;28;20179;-76
2020/12/05 11:27:41;;;;;;;2.50;2.27;;;;;;;4.40;81.96;98795.94;5050772;28;20182;-76
2020/12/05 11:30:07;;;;;;;3.40;3.10;;;;;;;4.41;81.75;98797.53;5050710;28;20261;-76
2020/12/05 11:32:33;;;;;;;2.47;2.27;;;;;;;4.37;81.49;98810.88;5050649;28;20521;-76
2020/12/05 11:34:58;;;;;;;3.20;3.00;;;;;;;4.38;81.96;98800.88;5050352;28;20211;-75